sensor_id;sensor_type;location;lat;lon;timestamp;pressure;altitude;pressure_sealevel;temperature;humidity
53550;BME280;67273;52.914;-0.982;2023-03-24T00:02:13;98816.03;;;18.74;46.10
53550;BME280;67273;52.914;-0.982;2023-03-24T00:04:41;98814.38;;;18.73;46.08
53550;BME280;67273;52.914;-0.982;2023-03-24T00:07:07;98815.19;;;18.74;46.05
53550;BME280;67273;52.914;-0.982;2023-03-24T00:09:33;98826.34;;;18.72;46.11
53550;BME280;67273;52.914;-0.982;2023-03-24T00:12:00;98823.63;;;18.72;46.09
53550;BME280;67273;52.914;-0.982;2023-03-24T00:14:26;98819.31;;;18.71;46.11
53550;BME280;67273;52.914;-0.982;2023-03-24T00:16:55;98823.13;;;18.70;46.08
53550;BME280;67273;52.914;-0.982;2023-03-24T00:19:23;98829.66;;;18.69;46.04
53550;BME280;67273;52.914;-0.982;2023-03-24T00:21:48;98824.22;;;18.69;45.96
53550;BME280;67273;52.914;-0.982;2023-03-24T00:24:14;98828.84;;;18.69;45.98
53550;BME280;67273;52.914;-0.982;2023-03-24T00:26:41;98827.22;;;18.68;46.11
53550;BME280;67273;52.914;-0.982;2023-03-24T00:29:09;98825.31;;;18.68;45.96
53550;BME280;67273;52.914;-0.982;2023-03-24T00:31:36;98830.75;;;18.68;46.15
53550;BME280;67273;52.914;-0.982;2023-03-24T00:34:04;98832.66;;;18.68;46.02
53550;BME280;67273;52.914;-0.982;2023-03-24T00:36:31;98828.59;;;18.65;46.01
53550;BME280;67273;52.914;-0.982;2023-03-24T00:38:57;98832.16;;;18.66;46.07
53550;BME280;67273;52.914;-0.982;2023-03-24T00:41:23;98829.69;;;18.64;45.79
53550;BME280;67273;52.914;-0.982;2023-03-24T00:43:54;98826.19;;;18.64;46.03
53550;BME280;67273;52.914;-0.982;2023-03-24T00:46:22;98837.88;;;18.64;45.98
53550;BME280;67273;52.914;-0.982;2023-03-24T00:48:59;98833.50;;;18.63;45.92
53550;BME280;67273;52.914;-0.982;2023-03-24T00:51:32;98844.38;;;18.63;45.97
53550;BME280;67273;52.914;-0.982;2023-03-24T00:53:58;98842.78;;;18.62;46.03
53550;BME280;67273;52.914;-0.982;2023-03-24T00:56:29;98849.31;;;18.61;45.93
53550;BME280;67273;52.914;-0.982;2023-03-24T00:58:56;98843.88;;;18.61;46.10
53550;BME280;67273;52.914;-0.982;2023-03-24T01:01:29;98849.31;;;18.61;46.00
53550;BME280;67273;52.914;-0.982;2023-03-24T01:03:57;98851.50;;;18.59;45.73
53550;BME280;67273;52.914;-0.982;2023-03-24T01:06:25;98858.00;;;18.58;45.93
53550;BME280;67273;52.914;-0.982;2023-03-24T01:08:51;98855.28;;;18.58;45.88
53550;BME280;67273;52.914;-0.982;2023-03-24T01:11:20;98858.00;;;18.58;45.81
53550;BME280;67273;52.914;-0.982;2023-03-24T01:13:47;98864.56;;;18.57;45.84
53550;BME280;67273;52.914;-0.982;2023-03-24T01:16:13;98865.66;;;18.56;45.94
53550;BME280;67273;52.914;-0.982;2023-03-24T01:18:41;98878.44;;;18.55;45.48
53550;BME280;67273;52.914;-0.982;2023-03-24T01:21:07;98870.28;;;18.55;45.89
53550;BME280;67273;52.914;-0.982;2023-03-24T01:23:33;98874.09;;;18.54;45.87
53550;BME280;67273;52.914;-0.982;2023-03-24T01:26:03;98883.09;;;18.55;45.83
53550;BME280;67273;52.914;-0.982;2023-03-24T01:28:30;98885.25;;;18.53;45.85
53550;BME280;67273;52.914;-0.982;2023-03-24T01:30:57;98890.69;;;18.53;45.74
53550;BME280;67273;52.914;-0.982;2023-03-24T01:33:22;98883.63;;;18.52;45.74
53550;BME280;67273;52.914;-0.982;2023-03-24T01:35:50;98881.72;;;18.52;45.73
53550;BME280;67273;52.914;-0.982;2023-03-24T01:38:16;98888.28;;;18.51;45.72
53550;BME280;67273;52.914;-0.982;2023-03-24T01:40:44;98883.09;;;18.50;45.64
53550;BME280;67273;52.914;-0.982;2023-03-24T01:43:16;98892.06;;;18.50;45.69
53550;BME280;67273;52.914;-0.982;2023-03-24T01:45:54;98888.53;;;18.50;45.74
53550;BME280;67273;52.914;-0.982;2023-03-24T01:48:24;98884.47;;;18.47;45.80
53550;BME280;67273;52.914;-0.982;2023-03-24T01:50:54;98888.03;;;18.48;45.67
53550;BME280;67273;52.914;-0.982;2023-03-24T01:53:22;98887.19;;;18.47;45.59
53550;BME280;67273;52.914;-0.982;2023-03-24T01:55:49;98896.47;;;18.46;45.57
53550;BME280;67273;52.914;-0.982;2023-03-24T01:58:19;98890.19;;;18.46;45.57
53550;BME280;67273;52.914;-0.982;2023-03-24T02:01:04;98894.00;;;18.45;45.48
53550;BME280;67273;52.914;-0.982;2023-03-24T02:03:56;98917.38;;;18.46;45.67
53550;BME280;67273;52.914;-0.982;2023-03-24T02:06:28;98912.25;;;18.44;45.42
53550;BME280;67273;52.914;-0.982;2023-03-24T02:08:58;98917.97;;;18.42;45.60
53550;BME280;67273;52.914;-0.982;2023-03-24T02:11:28;98920.69;;;18.42;45.52
53550;BME280;67273;52.914;-0.982;2023-03-24T02:13:59;98911.69;;;18.42;45.55
53550;BME280;67273;52.914;-0.982;2023-03-24T02:16:43;98917.13;;;18.42;45.43
53550;BME280;67273;52.914;-0.982;2023-03-24T02:19:47;98921.75;;;18.41;45.59
53550;BME280;67273;52.914;-0.982;2023-03-24T02:28:25;98932.09;;;18.39;45.43
53550;BME280;67273;52.914;-0.982;2023-03-24T02:31:10;98935.09;;;18.38;45.38
53550;BME280;67273;52.914;-0.982;2023-03-24T02:34:11;98954.13;;;18.38;45.48
53550;BME280;67273;52.914;-0.982;2023-03-24T02:37:12;98956.31;;;18.36;45.28
53550;BME280;67273;52.914;-0.982;2023-03-24T02:43:28;98959.31;;;18.34;45.52
53550;BME280;67273;52.914;-0.982;2023-03-24T02:46:10;98970.72;;;18.36;45.34
53550;BME280;67273;52.914;-0.982;2023-03-24T02:48:59;98975.63;;;18.34;45.33
53550;BME280;67273;52.914;-0.982;2023-03-24T02:51:42;98971.00;;;18.35;45.49
53550;BME280;67273;52.914;-0.982;2023-03-24T02:54:16;98973.97;;;18.33;45.39
53550;BME280;67273;52.914;-0.982;2023-03-24T02:56:53;98973.19;;;18.33;45.38
53550;BME280;67273;52.914;-0.982;2023-03-24T02:59:53;98977.81;;;18.32;45.33
53550;BME280;67273;52.914;-0.982;2023-03-24T03:02:51;98970.72;;;18.31;45.27
53550;BME280;67273;52.914;-0.982;2023-03-24T03:05:28;98975.38;;;18.31;45.31
53550;BME280;67273;52.914;-0.982;2023-03-24T03:08:07;98969.94;;;18.31;45.24
53550;BME280;67273;52.914;-0.982;2023-03-24T03:10:46;98974.56;;;18.30;45.37
53550;BME280;67273;52.914;-0.982;2023-03-24T03:13:24;98978.34;;;18.29;45.41
53550;BME280;67273;52.914;-0.982;2023-03-24T03:16:06;98981.09;;;18.29;45.41
53550;BME280;67273;52.914;-0.982;2023-03-24T03:18:42;98980.28;;;18.29;45.23
53550;BME280;67273;52.914;-0.982;2023-03-24T03:21:20;98988.69;;;18.27;45.27
53550;BME280;67273;52.914;-0.982;2023-03-24T03:23:51;98979.75;;;18.27;45.36
53550;BME280;67273;52.914;-0.982;2023-03-24T03:26:20;98991.41;;;18.27;45.32
53550;BME280;67273;52.914;-0.982;2023-03-24T03:28:56;98983.53;;;18.26;45.18
53550;BME280;67273;52.914;-0.982;2023-03-24T03:31:32;98982.19;;;18.23;45.19
53550;BME280;67273;52.914;-0.982;2023-03-24T03:34:07;98987.38;;;18.24;45.16
53550;BME280;67273;52.914;-0.982;2023-03-24T03:36:43;98987.63;;;18.23;45.22
53550;BME280;67273;52.914;-0.982;2023-03-24T03:39:27;98990.34;;;18.23;45.34
53550;BME280;67273;52.914;-0.982;2023-03-24T03:42:02;98995.78;;;18.23;45.27
53550;BME280;67273;52.914;-0.982;2023-03-24T03:44:40;98990.63;;;18.21;45.25
53550;BME280;67273;52.914;-0.982;2023-03-24T03:47:13;99002.59;;;18.20;45.23
53550;BME280;67273;52.914;-0.982;2023-03-24T03:49:44;99005.03;;;18.22;45.28
53550;BME280;67273;52.914;-0.982;2023-03-24T03:52:14;99008.84;;;18.21;45.11
53550;BME280;67273;52.914;-0.982;2023-03-24T03:54:45;99001.78;;;18.20;45.27
53550;BME280;67273;52.914;-0.982;2023-03-24T03:57:22;98996.34;;;18.20;45.22
53550;BME280;67273;52.914;-0.982;2023-03-24T04:00:13;98990.91;;;18.20;45.10
53550;BME280;67273;52.914;-0.982;2023-03-24T04:03:02;98997.41;;;18.19;45.25
53550;BME280;67273;52.914;-0.982;2023-03-24T04:05:34;99006.41;;;18.19;45.22
53550;BME280;67273;52.914;-0.982;2023-03-24T04:08:19;98994.97;;;18.17;45.19
53550;BME280;67273;52.914;-0.982;2023-03-24T04:17:16;99010.47;;;18.17;45.12
53550;BME280;67273;52.914;-0.982;2023-03-24T04:23:41;99008.88;;;18.16;45.13
53550;BME280;67273;52.914;-0.982;2023-03-24T04:26:46;99016.44;;;18.14;44.99
53550;BME280;67273;52.914;-0.982;2023-03-24T04:30:11;99005.59;;;18.14;45.00
53550;BME280;67273;52.914;-0.982;2023-03-24T04:32:50;99002.06;;;18.13;45.09
53550;BME280;67273;52.914;-0.982;2023-03-24T04:35:52;99001.25;;;18.13;44.93
53550;BME280;67273;52.914;-0.982;2023-03-24T05:05:50;99026.81;;;18.07;45.03
53550;BME280;67273;52.914;-0.982;2023-03-24T05:08:55;99026.00;;;18.06;44.94
53550;BME280;67273;52.914;-0.982;2023-03-24T05:11:47;99032.22;;;18.07;44.92
53550;BME280;67273;52.914;-0.982;2023-03-24T05:14:55;99036.06;;;18.05;44.80
53550;BME280;67273;52.914;-0.982;2023-03-24T05:17:50;99038.78;;;18.05;45.31
53550;BME280;67273;52.914;-0.982;2023-03-24T05:40:35;99042.31;;;18.01;45.00
53550;BME280;67273;52.914;-0.982;2023-03-24T05:43:30;99057.81;;;18.00;44.95
53550;BME280;67273;52.914;-0.982;2023-03-24T05:46:44;99053.44;;;17.99;44.94
53550;BME280;67273;52.914;-0.982;2023-03-24T05:49:42;99054.28;;;18.00;44.91
53550;BME280;67273;52.914;-0.982;2023-03-24T05:53:01;99058.06;;;17.99;44.89
53550;BME280;67273;52.914;-0.982;2023-03-24T05:59:20;99052.91;;;17.97;44.98
53550;BME280;67273;52.914;-0.982;2023-03-24T06:02:23;99052.91;;;17.97;44.73
53550;BME280;67273;52.914;-0.982;2023-03-24T06:05:33;99062.16;;;17.96;44.92
53550;BME280;67273;52.914;-0.982;2023-03-24T06:08:28;99055.91;;;17.96;44.78
53550;BME280;67273;52.914;-0.982;2023-03-24T06:11:20;99052.38;;;17.95;44.90
53550;BME280;67273;52.914;-0.982;2023-03-24T06:20:18;99069.75;;;17.94;44.85
53550;BME280;67273;52.914;-0.982;2023-03-24T06:23:27;99072.75;;;17.93;44.90
53550;BME280;67273;52.914;-0.982;2023-03-24T06:26:15;99072.75;;;17.93;44.73
53550;BME280;67273;52.914;-0.982;2023-03-24T06:29:07;99066.50;;;17.92;44.77
53550;BME280;67273;52.914;-0.982;2023-03-24T06:31:51;99055.09;;;17.95;44.69
53550;BME280;67273;52.914;-0.982;2023-03-24T06:34:40;99061.31;;;18.01;44.53
53550;BME280;67273;52.914;-0.982;2023-03-24T06:37:37;99062.69;;;18.09;44.48
53550;BME280;67273;52.914;-0.982;2023-03-24T06:40:33;99054.22;;;18.15;44.34
53550;BME280;67273;52.914;-0.982;2023-03-24T06:43:32;99057.75;;;18.26;44.31
53550;BME280;67273;52.914;-0.982;2023-03-24T06:46:26;99052.28;;;18.36;44.02
53550;BME280;67273;52.914;-0.982;2023-03-24T06:49:22;99049.00;;;18.50;43.97
53550;BME280;67273;52.914;-0.982;2023-03-24T06:52:22;99042.16;;;18.62;43.32
53550;BME280;67273;52.914;-0.982;2023-03-24T06:58:50;99037.69;;;18.92;43.14
53550;BME280;67273;52.914;-0.982;2023-03-24T07:01:40;99037.59;;;19.03;43.02
53550;BME280;67273;52.914;-0.982;2023-03-24T07:04:48;99037.84;;;19.11;42.82
53550;BME280;67273;52.914;-0.982;2023-03-24T07:07:37;99025.28;;;19.21;42.83
53550;BME280;67273;52.914;-0.982;2023-03-24T07:10:45;99037.22;;;19.25;42.79
53550;BME280;67273;52.914;-0.982;2023-03-24T07:13:32;99019.75;;;19.26;42.91
53550;BME280;67273;52.914;-0.982;2023-03-24T07:16:24;99023.84;;;19.28;42.85
53550;BME280;67273;52.914;-0.982;2023-03-24T07:19:35;99018.13;;;19.30;42.77
53550;BME280;67273;52.914;-0.982;2023-03-24T07:22:38;99014.28;;;19.31;42.89
53550;BME280;67273;52.914;-0.982;2023-03-24T07:25:52;99017.25;;;19.34;42.84
53550;BME280;67273;52.914;-0.982;2023-03-24T07:29:13;99016.97;;;19.36;42.74
53550;BME280;67273;52.914;-0.982;2023-03-24T07:32:45;99018.63;;;19.37;43.05
53550;BME280;67273;52.914;-0.982;2023-03-24T07:35:44;99022.41;;;19.36;42.93
53550;BME280;67273;52.914;-0.982;2023-03-24T07:38:22;99029.50;;;19.37;42.83
53550;BME280;67273;52.914;-0.982;2023-03-24T07:41:12;99028.41;;;19.38;42.91
53550;BME280;67273;52.914;-0.982;2023-03-24T07:47:15;99023.16;;;19.07;44.35
53550;BME280;67273;52.914;-0.982;2023-03-24T07:50:06;99030.28;;;19.03;44.48
53550;BME280;67273;52.914;-0.982;2023-03-24T07:53:00;99025.34;;;19.05;45.22
53550;BME280;67273;52.914;-0.982;2023-03-24T07:55:51;99034.34;;;19.06;45.61
53550;BME280;67273;52.914;-0.982;2023-03-24T07:58:37;99035.72;;;19.03;45.72
53550;BME280;67273;52.914;-0.982;2023-03-24T08:01:27;99036.66;;;19.28;46.26
53550;BME280;67273;52.914;-0.982;2023-03-24T08:04:17;99038.75;;;19.36;45.52
53550;BME280;67273;52.914;-0.982;2023-03-24T08:07:12;99039.91;;;19.30;45.39
53550;BME280;67273;52.914;-0.982;2023-03-24T08:09:58;99039.38;;;19.28;46.04
53550;BME280;67273;52.914;-0.982;2023-03-24T08:12:47;99038.75;;;19.36;45.61
53550;BME280;67273;52.914;-0.982;2023-03-24T08:15:32;99042.00;;;19.38;45.45
53550;BME280;67273;52.914;-0.982;2023-03-24T08:18:07;99038.19;;;19.39;45.14
53550;BME280;67273;52.914;-0.982;2023-03-24T08:21:08;99042.84;;;19.38;44.85
53550;BME280;67273;52.914;-0.982;2023-03-24T08:23:58;99044.72;;;19.38;44.71
53550;BME280;67273;52.914;-0.982;2023-03-24T08:26:52;99036.56;;;19.38;44.48
53550;BME280;67273;52.914;-0.982;2023-03-24T08:29:47;99048.28;;;19.38;44.35
53550;BME280;67273;52.914;-0.982;2023-03-24T08:32:48;99052.38;;;19.36;44.26
53550;BME280;67273;52.914;-0.982;2023-03-24T08:38:44;99050.78;;;19.35;44.16
53550;BME280;67273;52.914;-0.982;2023-03-24T08:44:57;99052.13;;;19.32;43.81
53550;BME280;67273;52.914;-0.982;2023-03-24T08:47:52;99061.13;;;19.33;43.93
53550;BME280;67273;52.914;-0.982;2023-03-24T08:51:08;99067.41;;;19.28;45.27
53550;BME280;67273;52.914;-0.982;2023-03-24T08:54:03;99059.25;;;19.28;44.97
53550;BME280;67273;52.914;-0.982;2023-03-24T08:57:03;99060.56;;;19.31;44.57
53550;BME280;67273;52.914;-0.982;2023-03-24T08:59:59;99060.56;;;19.31;44.33
53550;BME280;67273;52.914;-0.982;2023-03-24T09:03:01;99071.47;;;19.31;44.28
53550;BME280;67273;52.914;-0.982;2023-03-24T09:06:14;99068.75;;;19.31;44.01
53550;BME280;67273;52.914;-0.982;2023-03-24T09:09:22;99068.75;;;19.31;43.98
53550;BME280;67273;52.914;-0.982;2023-03-24T09:12:33;99078.03;;;19.30;43.86
53550;BME280;67273;52.914;-0.982;2023-03-24T09:15:18;99068.75;;;19.31;43.82
53550;BME280;67273;52.914;-0.982;2023-03-24T09:18:21;99069.06;;;19.29;43.68
53550;BME280;67273;52.914;-0.982;2023-03-24T09:21:05;99075.31;;;19.30;43.68
53550;BME280;67273;52.914;-0.982;2023-03-24T09:24:01;99070.13;;;19.28;43.75
53550;BME280;67273;52.914;-0.982;2023-03-24T09:27:14;99074.78;;;19.28;43.60
53550;BME280;67273;52.914;-0.982;2023-03-24T09:30:10;99076.66;;;19.27;43.68
53550;BME280;67273;52.914;-0.982;2023-03-24T09:36:13;99075.34;;;19.25;43.46
53550;BME280;67273;52.914;-0.982;2023-03-24T09:39:21;99084.59;;;19.24;43.49
53550;BME280;67273;52.914;-0.982;2023-03-24T09:42:26;99083.78;;;19.23;43.38
53550;BME280;67273;52.914;-0.982;2023-03-24T09:45:34;99085.41;;;19.24;43.31
53550;BME280;67273;52.914;-0.982;2023-03-24T09:48:56;99078.34;;;19.23;43.20
53550;BME280;67273;52.914;-0.982;2023-03-24T09:52:02;99081.34;;;19.22;43.63
53550;BME280;67273;52.914;-0.982;2023-03-24T09:55:20;99093.34;;;19.21;43.97
53550;BME280;67273;52.914;-0.982;2023-03-24T09:58:09;99084.06;;;19.22;43.91
53550;BME280;67273;52.914;-0.982;2023-03-24T10:04:25;99103.13;;;19.22;43.67
53550;BME280;67273;52.914;-0.982;2023-03-24T10:07:33;99098.78;;;19.21;43.78
53550;BME280;67273;52.914;-0.982;2023-03-24T10:10:34;99093.63;;;19.19;43.71
53550;BME280;67273;52.914;-0.982;2023-03-24T10:16:35;99096.63;;;19.17;43.38
53550;BME280;67273;52.914;-0.982;2023-03-24T10:19:34;99100.41;;;19.16;43.42
53550;BME280;67273;52.914;-0.982;2023-03-24T10:36:02;99103.47;;;19.10;43.41
53550;BME280;67273;52.914;-0.982;2023-03-24T10:39:07;99092.84;;;19.08;43.25
53550;BME280;67273;52.914;-0.982;2023-03-24T10:42:08;99092.84;;;19.08;43.12
53550;BME280;67273;52.914;-0.982;2023-03-24T10:48:47;99095.06;;;19.06;43.25
53550;BME280;67273;52.914;-0.982;2023-03-24T10:52:00;99090.69;;;19.05;43.16
53550;BME280;67273;52.914;-0.982;2023-03-24T10:55:17;99085.53;;;19.04;43.09
53550;BME280;67273;52.914;-0.982;2023-03-24T10:58:34;99082.78;;;19.04;43.11
53550;BME280;67273;52.914;-0.982;2023-03-24T11:01:43;99070.28;;;19.03;43.12
53550;BME280;67273;52.914;-0.982;2023-03-24T11:04:38;99094.75;;;19.03;43.04
53550;BME280;67273;52.914;-0.982;2023-03-24T11:07:48;99081.72;;;19.05;43.15
53550;BME280;67273;52.914;-0.982;2023-03-24T11:10:50;99088.22;;;19.09;42.97
53550;BME280;67273;52.914;-0.982;2023-03-24T11:14:09;99080.84;;;19.14;42.97
53550;BME280;67273;52.914;-0.982;2023-03-24T11:17:18;99092.75;;;19.24;42.87
53550;BME280;67273;52.914;-0.982;2023-03-24T11:20:24;99080.97;;;19.38;42.36
53550;BME280;67273;52.914;-0.982;2023-03-24T11:26:34;99073.41;;;19.65;42.00
53550;BME280;67273;52.914;-0.982;2023-03-24T11:29:47;99073.59;;;19.79;41.95
53550;BME280;67273;52.914;-0.982;2023-03-24T11:33:05;99078.16;;;19.88;41.79
53550;BME280;67273;52.914;-0.982;2023-03-24T11:36:07;99095.50;;;20.03;41.56
53550;BME280;67273;52.914;-0.982;2023-03-24T11:39:31;99082.91;;;20.07;41.54
53550;BME280;67273;52.914;-0.982;2023-03-24T11:42:41;99083.66;;;20.12;41.52
53550;BME280;67273;52.914;-0.982;2023-03-24T11:45:41;99077.13;;;20.13;41.56
53550;BME280;67273;52.914;-0.982;2023-03-24T11:48:44;99085.81;;;20.16;41.53
53550;BME280;67273;52.914;-0.982;2023-03-24T11:51:48;99072.72;;;20.18;41.56
53550;BME280;67273;52.914;-0.982;2023-03-24T11:54:59;99076.78;;;20.20;41.60
53550;BME280;67273;52.914;-0.982;2023-03-24T11:58:01;99074.59;;;20.22;41.53
53550;BME280;67273;52.914;-0.982;2023-03-24T12:01:08;99069.13;;;20.22;41.57
53550;BME280;67273;52.914;-0.982;2023-03-24T12:04:18;99070.16;;;20.26;41.54
53550;BME280;67273;52.914;-0.982;2023-03-24T12:07:30;99069.09;;;20.27;41.41
53550;BME280;67273;52.914;-0.982;2023-03-24T12:10:57;99058.16;;;20.27;41.57
53550;BME280;67273;52.914;-0.982;2023-03-24T12:13:55;99055.97;;;20.29;41.44
53550;BME280;67273;52.914;-0.982;2023-03-24T12:16:58;99067.69;;;20.30;41.56
53550;BME280;67273;52.914;-0.982;2023-03-24T12:23:29;99065.53;;;20.27;41.53
53550;BME280;67273;52.914;-0.982;2023-03-24T12:26:56;99046.16;;;20.28;41.44
53550;BME280;67273;52.914;-0.982;2023-03-24T12:40:16;99047.84;;;20.24;41.54
53550;BME280;67273;52.914;-0.982;2023-03-24T12:43:26;99047.03;;;20.24;41.80
53550;BME280;67273;52.914;-0.982;2023-03-24T12:46:48;99047.84;;;20.24;41.70
53550;BME280;67273;52.914;-0.982;2023-03-24T12:53:12;99032.56;;;20.23;41.62
53550;BME280;67273;52.914;-0.982;2023-03-24T13:02:53;99041.56;;;20.24;41.67
53550;BME280;67273;52.914;-0.982;2023-03-24T13:09:20;99031.47;;;20.24;41.35
53550;BME280;67273;52.914;-0.982;2023-03-24T13:12:34;99033.91;;;20.26;41.60
53550;BME280;67273;52.914;-0.982;2023-03-24T13:15:35;99042.38;;;20.24;41.57
53550;BME280;67273;52.914;-0.982;2023-03-24T13:18:58;99037.72;;;20.25;41.61
53550;BME280;67273;52.914;-0.982;2023-03-24T13:21:59;99044.59;;;20.22;41.56
53550;BME280;67273;52.914;-0.982;2023-03-24T13:24:48;99041.34;;;20.20;41.77
53550;BME280;67273;52.914;-0.982;2023-03-24T13:28:06;99043.22;;;20.20;41.64
53550;BME280;67273;52.914;-0.982;2023-03-24T13:31:14;99040.81;;;20.18;41.52
53550;BME280;67273;52.914;-0.982;2023-03-24T13:37:52;99052.34;;;20.10;41.79
53550;BME280;67273;52.914;-0.982;2023-03-24T13:40:54;99052.34;;;20.10;41.82
53550;BME280;67273;52.914;-0.982;2023-03-24T13:44:06;99045.25;;;20.09;41.83
53550;BME280;67273;52.914;-0.982;2023-03-24T13:47:17;99040.09;;;20.07;41.77
53550;BME280;67273;52.914;-0.982;2023-03-24T13:50:30;99040.41;;;20.06;41.73
53550;BME280;67273;52.914;-0.982;2023-03-24T13:56:51;99031.66;;;20.04;41.95
53550;BME280;67273;52.914;-0.982;2023-03-24T13:59:29;99020.25;;;20.02;41.91
53550;BME280;67273;52.914;-0.982;2023-03-24T14:02:55;99021.38;;;20.01;41.84
53550;BME280;67273;52.914;-0.982;2023-03-24T14:06:11;99006.91;;;20.00;42.03
53550;BME280;67273;52.914;-0.982;2023-03-24T14:09:32;99018.13;;;19.99;41.96
53550;BME280;67273;52.914;-0.982;2023-03-24T14:15:54;99029.03;;;19.99;41.86
53550;BME280;67273;52.914;-0.982;2023-03-24T14:18:44;99019.22;;;19.98;41.85
53550;BME280;67273;52.914;-0.982;2023-03-24T14:22:02;99020.84;;;19.99;41.81
53550;BME280;67273;52.914;-0.982;2023-03-24T14:28:32;99016.75;;;19.96;41.97
53550;BME280;67273;52.914;-0.982;2023-03-24T14:40:49;98996.59;;;19.97;42.81
53550;BME280;67273;52.914;-0.982;2023-03-24T14:43:59;98995.75;;;19.97;42.72
53550;BME280;67273;52.914;-0.982;2023-03-24T14:46:53;99002.06;;;19.97;42.61
53550;BME280;67273;52.914;-0.982;2023-03-24T14:49:47;99000.41;;;19.96;42.49
53550;BME280;67273;52.914;-0.982;2023-03-24T14:52:36;98993.63;;;19.93;42.59
53550;BME280;67273;52.914;-0.982;2023-03-24T14:55:51;99006.72;;;19.91;42.48
53550;BME280;67273;52.914;-0.982;2023-03-24T14:59:08;98999.88;;;19.94;42.43
53550;BME280;67273;52.914;-0.982;2023-03-24T15:05:27;98981.34;;;19.96;42.51
53550;BME280;67273;52.914;-0.982;2023-03-24T15:08:38;98977.81;;;19.96;42.19
53550;BME280;67273;52.914;-0.982;2023-03-24T15:15:12;98970.16;;;19.98;42.45
53550;BME280;67273;52.914;-0.982;2023-03-24T15:21:32;98978.28;;;20.03;42.27
53550;BME280;67273;52.914;-0.982;2023-03-24T15:24:35;98973.34;;;20.05;42.14
53550;BME280;67273;52.914;-0.982;2023-03-24T15:27:28;98967.31;;;20.08;42.37
53550;BME280;67273;52.914;-0.982;2023-03-24T15:30:40;98969.19;;;20.07;42.06
53550;BME280;67273;52.914;-0.982;2023-03-24T15:34:00;98955.56;;;20.07;42.18
53550;BME280;67273;52.914;-0.982;2023-03-24T15:37:20;98961.34;;;20.06;42.20
53550;BME280;67273;52.914;-0.982;2023-03-24T15:43:39;98957.44;;;20.12;42.03
53550;BME280;67273;52.914;-0.982;2023-03-24T15:49:31;98948.16;;;20.13;41.93
53550;BME280;67273;52.914;-0.982;2023-03-24T15:52:33;98951.94;;;20.17;41.84
53550;BME280;67273;52.914;-0.982;2023-03-24T15:55:29;98943.75;;;20.17;41.72
53550;BME280;67273;52.914;-0.982;2023-03-24T16:01:35;98932.28;;;20.20;41.66
53550;BME280;67273;52.914;-0.982;2023-03-24T16:04:55;98936.59;;;20.21;41.69
53550;BME280;67273;52.914;-0.982;2023-03-24T16:07:58;98935.22;;;20.24;41.63
53550;BME280;67273;52.914;-0.982;2023-03-24T16:11:05;98928.66;;;20.25;41.57
53550;BME280;67273;52.914;-0.982;2023-03-24T16:13:46;98923.41;;;20.28;41.51
53550;BME280;67273;52.914;-0.982;2023-03-24T16:16:34;98932.13;;;20.30;41.44
53550;BME280;67273;52.914;-0.982;2023-03-24T16:19:37;98927.28;;;20.27;41.59
53550;BME280;67273;52.914;-0.982;2023-03-24T16:22:31;98930.50;;;20.29;41.73
53550;BME280;67273;52.914;-0.982;2023-03-24T16:25:19;98928.66;;;20.25;41.58
53550;BME280;67273;52.914;-0.982;2023-03-24T16:27:55;98927.03;;;20.24;41.69
53550;BME280;67273;52.914;-0.982;2023-03-24T16:30:50;98927.84;;;20.24;41.76
53550;BME280;67273;52.914;-0.982;2023-03-24T16:33:53;98921.88;;;20.22;41.83
53550;BME280;67273;52.914;-0.982;2023-03-24T16:37:02;98925.69;;;20.21;41.75
53550;BME280;67273;52.914;-0.982;2023-03-24T16:39:53;98924.38;;;20.19;41.85
53550;BME280;67273;52.914;-0.982;2023-03-24T16:42:54;98936.09;;;20.19;42.06
53550;BME280;67273;52.914;-0.982;2023-03-24T16:45:59;98929.84;;;20.19;41.79
53550;BME280;67273;52.914;-0.982;2023-03-24T16:49:10;98947.56;;;20.16;41.83
53550;BME280;67273;52.914;-0.982;2023-03-24T16:51:50;98924.16;;;20.15;41.84
53550;BME280;67273;52.914;-0.982;2023-03-24T16:58:09;98924.72;;;20.12;41.96
53550;BME280;67273;52.914;-0.982;2023-03-24T17:00:56;98933.94;;;20.16;41.86
53550;BME280;67273;52.914;-0.982;2023-03-24T17:03:55;98931.81;;;20.13;41.76
53550;BME280;67273;52.914;-0.982;2023-03-24T17:06:37;98929.16;;;20.08;41.87
53550;BME280;67273;52.914;-0.982;2023-03-24T17:09:38;98930.53;;;20.05;41.76
53550;BME280;67273;52.914;-0.982;2023-03-24T17:12:19;98941.19;;;20.02;42.05
53550;BME280;67273;52.914;-0.982;2023-03-24T17:15:18;98942.59;;;19.99;41.98
53550;BME280;67273;52.914;-0.982;2023-03-24T17:18:15;98941.25;;;19.97;42.01
53550;BME280;67273;52.914;-0.982;2023-03-24T17:21:22;98941.84;;;19.93;42.02
53550;BME280;67273;52.914;-0.982;2023-03-24T17:24:27;98940.50;;;19.91;42.14
53550;BME280;67273;52.914;-0.982;2023-03-24T17:27:33;98953.59;;;19.89;42.20
53550;BME280;67273;52.914;-0.982;2023-03-24T17:33:44;98948.44;;;19.87;42.17
53550;BME280;67273;52.914;-0.982;2023-03-24T17:36:31;98944.91;;;19.87;42.19
53550;BME280;67273;52.914;-0.982;2023-03-24T17:39:36;98950.66;;;19.85;42.18
53550;BME280;67273;52.914;-0.982;2023-03-24T17:42:50;98948.22;;;19.84;42.10
53550;BME280;67273;52.914;-0.982;2023-03-24T17:46:16;98955.88;;;19.82;42.25
53550;BME280;67273;52.914;-0.982;2023-03-24T17:49:06;98954.53;;;19.79;42.07
53550;BME280;67273;52.914;-0.982;2023-03-24T17:52:11;98970.88;;;19.79;42.08
53550;BME280;67273;52.914;-0.982;2023-03-24T17:55:19;98971.47;;;19.76;42.15
53550;BME280;67273;52.914;-0.982;2023-03-24T17:58:15;98975.28;;;19.75;42.08
53550;BME280;67273;52.914;-0.982;2023-03-24T18:04:41;98975.00;;;19.71;42.19
53550;BME280;67273;52.914;-0.982;2023-03-24T18:07:41;98980.72;;;19.70;42.02
53550;BME280;67273;52.914;-0.982;2023-03-24T18:10:33;98981.84;;;19.69;42.24
53550;BME280;67273;52.914;-0.982;2023-03-24T18:13:49;98984.84;;;19.67;42.36
53550;BME280;67273;52.914;-0.982;2023-03-24T18:16:58;98996.31;;;19.64;42.28
53550;BME280;67273;52.914;-0.982;2023-03-24T18:20:07;98997.44;;;19.63;42.35
53550;BME280;67273;52.914;-0.982;2023-03-24T18:22:59;99007.78;;;19.61;42.39
53550;BME280;67273;52.914;-0.982;2023-03-24T18:32:40;98987.38;;;19.59;43.48